createdAt,value
2019-03-20T00:01:09.349Z,0.74
2019-03-20T00:03:38.500Z,0.75
2019-03-20T00:06:05.119Z,0.74
2019-03-20T00:09:26.745Z,0.76
2019-03-20T00:11:53.256Z,0.72
2019-03-20T00:14:19.830Z,0.60
2019-03-20T00:16:46.401Z,0.54
2019-03-20T00:19:13.281Z,0.55
2019-03-20T00:21:39.815Z,0.58
2019-03-20T00:24:06.320Z,0.60
2019-03-20T00:26:32.906Z,0.52
2019-03-20T00:28:59.650Z,0.38
2019-03-20T00:31:38.240Z,0.43
2019-03-20T00:36:48.574Z,0.52
2019-03-20T00:39:17.522Z,0.48
2019-03-20T00:41:44.081Z,0.50
2019-03-20T00:44:10.628Z,0.51
2019-03-20T00:46:39.288Z,0.50
2019-03-20T00:49:13.132Z,0.48
2019-03-20T00:52:02.869Z,0.48
2019-03-20T00:54:33.950Z,0.41
2019-03-20T00:57:01.435Z,0.29
2019-03-20T00:59:28.035Z,0.27
2019-03-20T01:01:59.111Z,0.26
2019-03-20T01:04:50.675Z,0.21
2019-03-20T01:07:51.753Z,0.22
2019-03-20T01:10:21.717Z,0.28
2019-03-20T01:12:54.446Z,0.38
2019-03-20T01:15:21.495Z,0.41
2019-03-20T01:17:48.151Z,0.38
2019-03-20T01:20:15.884Z,0.35
2019-03-20T01:22:43.854Z,0.35
2019-03-20T01:25:10.576Z,0.39
2019-03-20T01:27:37.163Z,0.36
2019-03-20T01:30:04.348Z,0.38
2019-03-20T01:32:30.950Z,0.37
2019-03-20T01:35:03.666Z,0.28
2019-03-20T01:37:43.552Z,0.23
2019-03-20T01:40:13.615Z,0.17
2019-03-20T01:42:49.682Z,0.16
2019-03-20T01:45:33.419Z,0.15
2019-03-20T01:48:04.000Z,0.16
2019-03-20T01:50:33.887Z,0.18
2019-03-20T01:53:03.652Z,0.14
2019-03-20T01:55:30.326Z,0.09
2019-03-20T01:57:57.258Z,0.05
2019-03-20T02:00:23.881Z,0.04
2019-03-20T02:02:51.308Z,0.01
2019-03-20T02:05:34.686Z,-0.02
2019-03-20T02:07:52.452Z,-0.05
2019-03-20T02:10:19.143Z,-0.06
2019-03-20T02:12:45.793Z,-0.11
2019-03-20T02:15:13.906Z,-0.12
2019-03-20T02:17:40.674Z,-0.17
2019-03-20T02:20:09.343Z,-0.21
2019-03-20T02:22:35.904Z,-0.23
2019-03-20T02:25:03.338Z,-0.23
2019-03-20T02:27:29.837Z,-0.17
2019-03-20T02:30:06.436Z,-0.14
2019-03-20T02:32:33.042Z,-0.09
2019-03-20T02:34:59.614Z,-0.03
2019-03-20T02:37:26.547Z,-0.07
2019-03-20T02:39:53.109Z,-0.06
2019-03-20T02:42:19.653Z,0.00
2019-03-20T02:44:50.863Z,0.06
2019-03-20T02:47:22.170Z,0.09
2019-03-20T02:49:48.734Z,0.10
2019-03-20T02:52:17.892Z,0.07
2019-03-20T02:54:44.868Z,0.03
2019-03-20T02:57:17.491Z,-0.05
2019-03-20T02:59:46.142Z,-0.07
2019-03-20T03:02:13.021Z,0.01
2019-03-20T03:04:39.866Z,0.03
2019-03-20T03:07:07.677Z,-0.04
2019-03-20T03:09:34.564Z,-0.08
2019-03-20T03:12:01.066Z,-0.13
2019-03-20T03:14:27.591Z,-0.19
2019-03-20T03:16:55.710Z,-0.23
2019-03-20T03:19:22.220Z,-0.31
2019-03-20T03:21:56.103Z,-0.27
2019-03-20T03:24:28.113Z,-0.22
2019-03-20T03:26:57.596Z,-0.14
2019-03-20T03:29:24.538Z,-0.13
2019-03-20T03:31:51.170Z,-0.11
2019-03-20T03:34:22.446Z,-0.09
2019-03-20T03:36:49.340Z,-0.02
2019-03-20T03:39:18.981Z,0.03
2019-03-20T03:41:48.558Z,0.01
2019-03-20T03:44:18.543Z,-0.03
2019-03-20T03:49:49.197Z,-0.11
2019-03-20T03:52:22.782Z,-0.14
2019-03-20T03:54:49.790Z,-0.11
2019-03-20T03:57:19.442Z,-0.12
2019-03-20T03:59:46.397Z,-0.09
2019-03-20T04:02:12.898Z,-0.08
2019-03-20T04:04:39.428Z,-0.04
2019-03-20T04:07:06.042Z,-0.02
2019-03-20T04:09:32.612Z,-0.01
2019-03-20T04:11:59.162Z,0.05
2019-03-20T04:14:25.765Z,0.02
2019-03-20T04:16:52.516Z,0.03
2019-03-20T04:19:19.014Z,0.02
2019-03-20T04:21:45.778Z,0.03
2019-03-20T04:24:12.346Z,0.01
2019-03-20T04:26:39.015Z,0.01
2019-03-20T04:29:05.602Z,0.00
2019-03-20T04:31:32.229Z,-0.09
2019-03-20T04:33:58.948Z,-0.15
2019-03-20T04:36:26.277Z,-0.21
2019-03-20T04:38:59.055Z,-0.26
2019-03-20T04:41:25.601Z,-0.35
2019-03-20T04:43:57.116Z,-0.45
2019-03-20T04:46:23.681Z,-0.50
2019-03-20T04:48:53.223Z,-0.48
2019-03-20T04:51:26.481Z,-0.50
2019-03-20T04:53:56.214Z,-0.48
2019-03-20T04:56:24.050Z,-0.50
2019-03-20T04:58:51.615Z,-0.56
2019-03-20T05:01:18.224Z,-0.57
2019-03-20T05:03:51.872Z,-0.59
2019-03-20T05:06:18.581Z,-0.65
2019-03-20T05:08:48.536Z,-0.72
2019-03-20T05:11:34.116Z,-0.78
2019-03-20T05:14:01.006Z,-0.74
2019-03-20T05:16:28.495Z,-0.66
2019-03-20T05:18:55.139Z,-0.68
2019-03-20T05:21:28.607Z,-0.66
2019-03-20T05:23:57.290Z,-0.69
2019-03-20T05:26:29.091Z,-0.67
2019-03-20T05:28:56.072Z,-0.66
2019-03-20T05:31:42.836Z,-0.65
2019-03-20T05:34:09.474Z,-0.66
2019-03-20T05:36:36.063Z,-0.64
2019-03-20T05:39:05.291Z,-0.59
2019-03-20T05:41:37.061Z,-0.51
2019-03-20T05:44:03.778Z,-0.49
2019-03-20T05:46:31.548Z,-0.42
2019-03-20T05:48:58.391Z,-0.34
2019-03-20T05:51:27.738Z,-0.25
2019-03-20T05:53:58.175Z,-0.18
2019-03-20T05:56:37.946Z,-0.07
2019-03-20T05:59:09.887Z,0.02
2019-03-20T06:01:39.559Z,0.13
2019-03-20T06:04:09.388Z,0.16
2019-03-20T06:06:35.955Z,0.19
2019-03-20T06:09:05.704Z,0.28
2019-03-20T06:11:32.275Z,0.39
2019-03-20T06:13:59.147Z,0.51
2019-03-20T06:16:25.691Z,0.61
2019-03-20T06:18:55.605Z,0.67
2019-03-20T06:21:22.251Z,0.77
2019-03-20T06:23:58.155Z,0.90
2019-03-20T06:26:24.729Z,1.08
2019-03-20T06:28:55.242Z,1.24
2019-03-20T06:31:21.808Z,1.47
2019-03-20T06:33:48.862Z,1.72
2019-03-20T06:36:18.804Z,1.92
2019-03-20T06:38:45.390Z,2.10
2019-03-20T06:41:12.426Z,2.27
2019-03-20T06:43:39.849Z,2.50
2019-03-20T06:46:06.691Z,2.70
2019-03-20T06:48:33.278Z,2.92
2019-03-20T06:50:59.971Z,3.16
2019-03-20T06:53:28.760Z,3.40
2019-03-20T06:55:55.343Z,3.65
2019-03-20T06:58:24.755Z,3.86
2019-03-20T07:01:27.652Z,4.09
2019-03-20T07:04:18.272Z,4.36
2019-03-20T07:06:52.427Z,4.73
2019-03-20T07:09:29.719Z,5.12
2019-03-20T07:11:56.902Z,5.46
2019-03-20T07:14:23.521Z,5.85
2019-03-20T07:16:54.510Z,6.19
2019-03-20T07:19:21.437Z,6.58
2019-03-20T07:21:52.341Z,6.94
2019-03-20T07:24:19.357Z,7.28
2019-03-20T07:26:46.282Z,7.59
2019-03-20T07:29:12.921Z,7.69
2019-03-20T07:31:40.108Z,7.94
2019-03-20T07:34:08.070Z,8.12
2019-03-20T07:36:35.492Z,8.28
2019-03-20T07:39:04.101Z,8.48
2019-03-20T07:41:30.625Z,8.76
2019-03-20T07:43:57.323Z,9.15
2019-03-20T07:46:23.925Z,9.09
2019-03-20T07:48:51.575Z,9.36
2019-03-20T07:51:18.298Z,9.47
2019-03-20T07:53:44.839Z,9.46
2019-03-20T07:56:12.592Z,9.72
2019-03-20T07:58:39.282Z,10.15
2019-03-20T08:01:06.381Z,10.12
2019-03-20T08:03:34.803Z,10.13
2019-03-20T08:06:02.026Z,10.41
2019-03-20T08:08:29.691Z,10.74
2019-03-20T08:10:56.854Z,11.02
2019-03-20T08:13:23.893Z,11.07
2019-03-20T08:15:51.245Z,11.21
2019-03-20T08:18:17.885Z,11.22
2019-03-20T08:20:44.475Z,11.10
2019-03-20T08:23:13.466Z,10.87
2019-03-20T08:25:40.214Z,11.10
2019-03-20T08:28:06.935Z,10.78
2019-03-20T08:30:43.118Z,11.21
2019-03-20T08:33:09.649Z,11.39
2019-03-20T08:35:44.266Z,11.88
2019-03-20T08:38:18.140Z,12.04
2019-03-20T08:40:39.290Z,12.01
2019-03-20T08:43:05.854Z,11.68
2019-03-20T08:45:32.495Z,11.85
2019-03-20T08:48:00.603Z,12.21
2019-03-20T08:50:27.200Z,12.33
2019-03-20T08:52:55.134Z,12.25
2019-03-20T08:55:21.863Z,12.25
2019-03-20T08:57:48.751Z,12.51
2019-03-20T09:00:16.159Z,12.60
2019-03-20T09:02:42.889Z,12.79
2019-03-20T09:05:09.725Z,13.02
2019-03-20T09:07:46.696Z,13.14
2019-03-20T09:10:06.917Z,13.07
2019-03-20T09:12:33.475Z,13.75
2019-03-20T09:15:00.169Z,13.82
2019-03-20T09:17:27.095Z,13.61
2019-03-20T09:19:54.093Z,13.96
2019-03-20T09:22:20.619Z,13.46
2019-03-20T09:24:47.165Z,13.51
2019-03-20T09:27:14.190Z,13.57
2019-03-20T09:29:41.276Z,13.92
2019-03-20T09:32:07.959Z,14.21
2019-03-20T09:34:34.676Z,14.50
2019-03-20T09:37:01.435Z,14.68
2019-03-20T09:39:27.950Z,14.51
2019-03-20T09:41:54.645Z,14.51
2019-03-20T09:44:21.391Z,14.23
2019-03-20T09:46:47.952Z,14.30
2019-03-20T09:49:14.536Z,14.41
2019-03-20T09:51:41.139Z,14.34
2019-03-20T09:54:08.699Z,14.44
2019-03-20T09:56:35.391Z,14.81
2019-03-20T09:59:02.023Z,14.51
2019-03-20T10:01:28.705Z,15.28
2019-03-20T10:03:55.764Z,15.12
2019-03-20T10:06:22.736Z,14.52
2019-03-20T10:08:54.345Z,14.83
2019-03-20T10:11:20.192Z,15.09
2019-03-20T10:13:46.904Z,15.12
2019-03-20T10:16:13.440Z,14.73
2019-03-20T10:18:40.816Z,13.92
2019-03-20T10:21:07.526Z,14.80
2019-03-20T10:23:34.137Z,15.05
2019-03-20T10:26:01.013Z,15.46
2019-03-20T10:28:28.053Z,15.17
2019-03-20T10:30:54.876Z,15.54
2019-03-20T10:33:24.362Z,15.41
2019-03-20T10:35:51.074Z,15.37
2019-03-20T10:38:17.635Z,15.49
2019-03-20T10:40:44.346Z,15.29
2019-03-20T10:43:10.888Z,15.60
2019-03-20T10:45:37.704Z,16.03
2019-03-20T10:48:07.245Z,15.84
2019-03-20T10:50:34.080Z,15.93
2019-03-20T10:53:00.795Z,16.38
2019-03-20T10:55:52.381Z,16.68
2019-03-20T10:58:19.398Z,16.32
2019-03-20T11:00:46.353Z,16.31
2019-03-20T11:03:14.334Z,16.44
2019-03-20T11:05:42.289Z,16.33
2019-03-20T11:08:08.836Z,16.33
2019-03-20T11:10:36.222Z,16.25
2019-03-20T11:13:03.247Z,16.48
2019-03-20T11:15:29.998Z,16.15
2019-03-20T11:17:56.695Z,16.04
2019-03-20T11:20:23.421Z,15.61
2019-03-20T11:22:50.495Z,15.71
2019-03-20T11:25:19.433Z,16.21
2019-03-20T11:27:47.404Z,15.94
2019-03-20T11:30:20.609Z,16.53
2019-03-20T11:32:47.520Z,16.53
2019-03-20T11:35:14.221Z,17.05
2019-03-20T11:37:41.331Z,17.05
2019-03-20T11:40:10.679Z,16.99
2019-03-20T11:42:37.609Z,17.08
2019-03-20T11:45:04.955Z,17.08
2019-03-20T11:47:31.797Z,17.21
2019-03-20T11:49:58.578Z,17.08
2019-03-20T11:52:25.718Z,17.50
2019-03-20T11:54:52.939Z,17.56
2019-03-20T11:57:21.632Z,17.22
2019-03-20T11:59:48.157Z,17.89
2019-03-20T12:02:15.289Z,17.22
2019-03-20T12:04:42.126Z,17.18
2019-03-20T12:07:08.889Z,17.19
2019-03-20T12:09:41.227Z,16.94
2019-03-20T12:12:07.723Z,16.78
2019-03-20T12:14:34.305Z,17.06
2019-03-20T12:17:01.227Z,17.29
2019-03-20T12:19:27.929Z,17.20
2019-03-20T12:21:54.743Z,17.51
2019-03-20T12:24:21.348Z,17.62
2019-03-20T12:26:48.206Z,18.02
2019-03-20T12:29:14.809Z,17.89
2019-03-20T12:31:41.606Z,17.87
2019-03-20T12:34:08.251Z,17.52
2019-03-20T12:36:35.076Z,17.04
2019-03-20T12:39:01.658Z,16.98
2019-03-20T12:41:28.326Z,16.64
2019-03-20T12:43:55.998Z,17.22
2019-03-20T12:46:22.664Z,17.22
2019-03-20T12:48:49.325Z,16.84
2019-03-20T12:51:15.879Z,16.41
2019-03-20T12:53:43.541Z,15.66
2019-03-20T12:56:10.109Z,15.93
2019-03-20T12:58:36.618Z,16.08
2019-03-20T13:01:04.274Z,15.83
2019-03-20T13:03:31.009Z,15.84
2019-03-20T13:05:57.586Z,15.47
2019-03-20T13:08:24.669Z,15.37
2019-03-20T13:10:51.298Z,14.55
2019-03-20T13:13:19.964Z,14.52
2019-03-20T13:15:46.738Z,14.92
2019-03-20T13:18:17.434Z,14.71
2019-03-20T13:20:44.277Z,14.91
2019-03-20T13:23:12.775Z,14.75
2019-03-20T13:25:39.558Z,14.79
2019-03-20T13:28:06.566Z,14.54
2019-03-20T13:30:36.253Z,14.39
2019-03-20T13:33:03.409Z,14.41
2019-03-20T13:35:30.006Z,14.40
2019-03-20T13:37:56.935Z,14.48
2019-03-20T13:40:24.417Z,14.65
2019-03-20T13:42:51.088Z,14.74
2019-03-20T13:45:17.760Z,14.88
2019-03-20T13:47:44.473Z,14.76
2019-03-20T13:50:12.127Z,14.76
2019-03-20T13:52:40.346Z,14.93
2019-03-20T13:55:07.436Z,14.80
2019-03-20T13:57:34.240Z,15.08
2019-03-20T14:00:01.094Z,14.85
2019-03-20T14:02:27.730Z,14.58
2019-03-20T14:04:54.257Z,14.02
2019-03-20T14:07:21.395Z,14.14
2019-03-20T14:09:48.142Z,14.15
2019-03-20T14:12:15.009Z,14.03
2019-03-20T14:14:41.688Z,14.30
2019-03-20T14:17:08.451Z,14.31
2019-03-20T14:19:34.993Z,14.19
2019-03-20T14:22:01.701Z,13.93
2019-03-20T14:24:28.372Z,13.88
2019-03-20T14:26:54.915Z,13.52
2019-03-20T14:29:21.538Z,13.42
2019-03-20T14:31:48.622Z,13.06
2019-03-20T14:34:15.655Z,13.07
2019-03-20T14:36:42.236Z,13.01
2019-03-20T14:39:09.523Z,13.13
2019-03-20T14:41:36.147Z,13.03
2019-03-20T14:44:02.908Z,12.97
2019-03-20T14:46:29.493Z,12.97
2019-03-20T14:48:56.549Z,12.73
2019-03-20T14:51:23.387Z,12.54
2019-03-20T14:53:50.054Z,12.67
2019-03-20T14:56:18.269Z,12.61
2019-03-20T14:58:45.354Z,12.69
2019-03-20T15:01:12.465Z,12.86
2019-03-20T15:03:39.737Z,12.74
2019-03-20T15:06:06.966Z,12.81
2019-03-20T15:08:33.676Z,12.73
2019-03-20T15:11:00.825Z,12.63
2019-03-20T15:13:28.473Z,12.47
2019-03-20T15:18:23.793Z,12.60
2019-03-20T15:20:50.449Z,12.66
2019-03-20T15:23:17.124Z,12.67
2019-03-20T15:25:43.918Z,12.65
2019-03-20T15:28:10.603Z,12.56
2019-03-20T15:30:37.515Z,12.53
2019-03-20T15:33:04.842Z,12.49
2019-03-20T15:35:31.405Z,12.31
2019-03-20T15:37:58.367Z,12.25
2019-03-20T15:40:25.063Z,12.13
2019-03-20T15:42:51.800Z,12.12
2019-03-20T15:45:18.503Z,11.91
2019-03-20T15:47:45.395Z,11.95
2019-03-20T15:50:13.618Z,11.95
2019-03-20T15:52:40.214Z,11.91
2019-03-20T15:55:12.943Z,11.75
2019-03-20T15:57:40.283Z,11.70
2019-03-20T16:00:12.306Z,11.76
2019-03-20T16:02:39.187Z,11.67
2019-03-20T16:05:06.866Z,11.61
2019-03-20T16:07:34.426Z,11.62
2019-03-20T16:10:04.332Z,11.66
2019-03-20T16:12:31.166Z,11.54
2019-03-20T16:14:57.992Z,11.53
2019-03-20T16:17:24.711Z,11.56
2019-03-20T16:19:53.694Z,11.51
2019-03-20T16:22:20.275Z,11.46
2019-03-20T16:24:46.825Z,11.40
2019-03-20T16:27:13.398Z,11.38
2019-03-20T16:29:41.236Z,11.29
2019-03-20T16:32:08.081Z,11.17
2019-03-20T16:34:34.698Z,11.14
2019-03-20T16:37:01.299Z,11.13
2019-03-20T16:39:28.116Z,11.07
2019-03-20T16:41:54.638Z,11.00
2019-03-20T16:44:21.226Z,10.94
2019-03-20T16:46:48.311Z,10.90
2019-03-20T16:49:14.951Z,10.81
2019-03-20T16:51:41.538Z,10.73
2019-03-20T16:54:08.506Z,10.68
2019-03-20T16:56:35.288Z,10.60
2019-03-20T16:59:01.948Z,10.57
2019-03-20T17:01:28.629Z,10.50
2019-03-20T17:03:55.255Z,10.44
2019-03-20T17:06:23.007Z,10.36
2019-03-20T17:08:49.676Z,10.31
2019-03-20T17:11:26.463Z,10.22
2019-03-20T17:13:46.136Z,10.15
2019-03-20T17:16:12.677Z,10.06
2019-03-20T17:18:39.413Z,9.99
2019-03-20T17:21:06.123Z,9.91
2019-03-20T17:23:32.717Z,9.82
2019-03-20T17:25:59.335Z,9.73
2019-03-20T17:28:25.894Z,9.62
2019-03-20T17:30:52.679Z,9.45
2019-03-20T17:33:20.018Z,9.28
2019-03-20T17:35:46.700Z,9.09
2019-03-20T17:38:13.407Z,8.90
2019-03-20T17:40:39.969Z,8.70
2019-03-20T17:43:06.822Z,8.60
2019-03-20T17:45:34.173Z,8.48
2019-03-20T17:48:01.027Z,8.40
2019-03-20T17:50:29.198Z,8.38
2019-03-20T17:52:58.404Z,8.26
2019-03-20T17:55:25.719Z,8.15
2019-03-20T17:57:52.211Z,7.98
2019-03-20T18:00:27.420Z,7.82
2019-03-20T18:02:54.233Z,7.55
2019-03-20T18:05:21.082Z,7.41
2019-03-20T18:07:50.325Z,7.30
2019-03-20T18:10:17.307Z,7.18
2019-03-20T18:12:43.998Z,7.08
2019-03-20T18:15:11.080Z,6.99
2019-03-20T18:17:37.830Z,6.99
2019-03-20T18:20:05.131Z,6.99
2019-03-20T18:22:31.576Z,6.99
2019-03-20T18:24:58.154Z,6.96
2019-03-20T18:27:24.641Z,6.90
2019-03-20T18:29:52.602Z,6.81
2019-03-20T18:32:19.075Z,6.72
2019-03-20T18:34:45.714Z,6.73
2019-03-20T18:37:15.309Z,6.71
2019-03-20T18:39:42.205Z,6.66
2019-03-20T18:42:09.696Z,6.55
2019-03-20T18:44:36.375Z,6.53
2019-03-20T18:47:07.299Z,6.54
2019-03-20T18:49:33.806Z,6.37
2019-03-20T18:52:00.812Z,6.21
2019-03-20T18:54:27.678Z,6.24
2019-03-20T18:56:54.463Z,6.26
2019-03-20T18:59:21.376Z,6.29
2019-03-20T19:01:50.757Z,6.26
2019-03-20T19:04:17.267Z,6.23
2019-03-20T19:06:43.806Z,6.14
2019-03-20T19:09:10.313Z,6.09
2019-03-20T19:11:38.984Z,6.07
2019-03-20T19:14:05.853Z,6.07
2019-03-20T19:16:33.056Z,6.07
2019-03-20T19:18:59.949Z,5.89
2019-03-20T19:21:26.624Z,5.79
2019-03-20T19:23:53.515Z,5.78
2019-03-20T19:26:20.036Z,5.84
2019-03-20T19:28:46.886Z,5.83
2019-03-20T19:31:14.033Z,5.82
2019-03-20T19:33:42.630Z,5.72
2019-03-20T19:36:09.201Z,5.67
2019-03-20T19:38:35.950Z,5.62
2019-03-20T19:41:02.956Z,5.57
2019-03-20T19:43:29.458Z,5.58
2019-03-20T19:45:56.064Z,5.60
2019-03-20T19:48:22.755Z,5.67
2019-03-20T19:50:49.343Z,5.67
2019-03-20T19:53:16.355Z,5.59
2019-03-20T19:55:42.989Z,5.62
2019-03-20T19:58:09.575Z,5.62
2019-03-20T20:00:36.394Z,5.58
2019-03-20T20:03:03.348Z,5.56
2019-03-20T20:05:29.952Z,5.52
2019-03-20T20:07:56.522Z,5.48
2019-03-20T20:10:23.040Z,5.49
2019-03-20T20:12:49.729Z,5.45
2019-03-20T20:15:19.414Z,5.45
2019-03-20T20:17:46.999Z,5.38
2019-03-20T20:20:16.327Z,5.34
2019-03-20T20:22:43.437Z,5.34
2019-03-20T20:25:10.148Z,5.39
2019-03-20T20:27:36.796Z,5.40
2019-03-20T20:30:03.925Z,5.35
2019-03-20T20:32:35.234Z,5.32
2019-03-20T20:35:01.891Z,5.27
2019-03-20T20:37:28.477Z,5.23
2019-03-20T20:39:55.161Z,5.26
2019-03-20T20:42:21.778Z,5.25
2019-03-20T20:44:48.343Z,5.23
2019-03-20T20:47:14.845Z,5.23
2019-03-20T20:49:41.719Z,5.32
2019-03-20T20:52:18.756Z,5.40
2019-03-20T20:54:36.651Z,5.40
2019-03-20T20:57:03.608Z,5.39
2019-03-20T20:59:30.561Z,5.37
2019-03-20T21:01:57.130Z,5.46
2019-03-20T21:04:23.685Z,5.55
2019-03-20T21:06:50.244Z,5.59
2019-03-20T21:09:16.975Z,5.62
2019-03-20T21:11:43.509Z,5.58
2019-03-20T21:14:10.587Z,5.48
2019-03-20T21:16:37.621Z,5.46
2019-03-20T21:19:36.723Z,5.46
2019-03-20T21:22:46.624Z,5.37
2019-03-20T21:25:16.043Z,5.41
2019-03-20T21:28:21.896Z,5.49
2019-03-20T21:31:00.211Z,5.53
2019-03-20T21:33:49.693Z,5.54
2019-03-20T21:37:04.277Z,5.58
2019-03-20T21:39:32.566Z,5.52
2019-03-20T21:42:44.724Z,5.53
2019-03-20T21:45:39.107Z,5.54
2019-03-20T21:48:14.806Z,5.65
2019-03-20T21:51:09.932Z,5.73
2019-03-20T21:54:18.521Z,5.76
2019-03-20T21:57:33.445Z,5.64
2019-03-20T22:00:42.338Z,5.53
2019-03-20T22:03:09.400Z,5.50
2019-03-20T22:06:14.055Z,5.50
2019-03-20T22:08:43.226Z,5.47
2019-03-20T22:11:56.770Z,5.48
2019-03-20T22:14:23.909Z,5.49
2019-03-20T22:17:50.277Z,5.50
2019-03-20T22:20:43.154Z,5.53
2019-03-20T22:23:54.874Z,5.56
2019-03-20T22:26:56.150Z,5.53
2019-03-20T22:29:24.715Z,5.57
2019-03-20T22:32:41.553Z,5.60
2019-03-20T22:35:53.821Z,5.62
2019-03-20T22:39:04.112Z,5.67
2019-03-20T22:42:08.055Z,5.65
2019-03-20T22:44:38.799Z,5.67
2019-03-20T22:47:41.070Z,5.73
2019-03-20T22:50:33.482Z,5.70
2019-03-20T22:53:29.392Z,5.68
2019-03-20T22:56:26.092Z,5.65
2019-03-20T22:58:53.298Z,5.60
2019-03-20T23:01:48.027Z,5.54
2019-03-20T23:04:22.071Z,5.44
2019-03-20T23:06:49.178Z,5.40
2019-03-20T23:09:16.248Z,5.41
2019-03-20T23:11:45.430Z,5.43
2019-03-20T23:14:12.542Z,5.44
2019-03-20T23:16:39.666Z,5.43
2019-03-20T23:19:06.900Z,5.41
2019-03-20T23:21:33.986Z,5.41
2019-03-20T23:24:03.319Z,5.38
2019-03-20T23:26:30.522Z,5.38
2019-03-20T23:28:57.799Z,5.29
2019-03-20T23:31:30.905Z,5.23
2019-03-20T23:33:58.340Z,5.28
2019-03-20T23:36:26.046Z,5.36
2019-03-20T23:38:53.120Z,5.25
2019-03-20T23:41:20.171Z,5.09
2019-03-20T23:43:52.836Z,4.87
2019-03-20T23:46:16.487Z,4.87
2019-03-20T23:48:50.104Z,4.93
2019-03-20T23:51:27.483Z,4.89
2019-03-20T23:53:55.485Z,4.82
2019-03-20T23:56:23.782Z,4.74
2019-03-20T23:58:51.217Z,4.74
